createdAt,value
2018-11-03T00:02:07.648Z,8.90
2018-11-03T00:04:36.104Z,8.80
2018-11-03T00:07:04.950Z,8.80
2018-11-03T00:09:33.424Z,8.80
2018-11-03T00:12:01.920Z,8.70
2018-11-03T00:14:30.392Z,8.70
2018-11-03T00:16:58.933Z,8.70
2018-11-03T00:19:27.449Z,8.60
2018-11-03T00:21:55.837Z,8.60
2018-11-03T00:24:24.353Z,8.60
2018-11-03T00:26:52.865Z,8.60
2018-11-03T00:29:21.318Z,8.50
2018-11-03T00:31:49.824Z,8.60
2018-11-03T00:34:18.356Z,8.50
2018-11-03T00:36:46.752Z,8.50
2018-11-03T00:39:15.146Z,8.50
2018-11-03T00:41:43.536Z,8.40
2018-11-03T00:44:11.949Z,8.40
2018-11-03T00:46:40.294Z,8.40
2018-11-03T00:49:08.724Z,8.40
2018-11-03T00:51:37.219Z,8.40
2018-11-03T00:54:05.672Z,8.30
2018-11-03T00:56:34.057Z,8.30
2018-11-03T00:59:02.474Z,8.30
2018-11-03T01:01:30.932Z,8.30
2018-11-03T01:03:59.384Z,8.30
2018-11-03T01:06:27.813Z,8.30
2018-11-03T01:08:56.507Z,8.30
2018-11-03T01:11:24.956Z,8.20
2018-11-03T01:13:53.512Z,8.20
2018-11-03T01:16:21.956Z,8.20
2018-11-03T01:18:50.561Z,8.20
2018-11-03T01:21:19.045Z,8.20
2018-11-03T01:23:47.521Z,8.20
2018-11-03T01:26:15.897Z,8.20
2018-11-03T01:28:44.390Z,8.10
2018-11-03T01:31:12.847Z,8.10
2018-11-03T01:33:41.365Z,8.10
2018-11-03T01:36:09.752Z,8.10
2018-11-03T01:38:38.244Z,8.00
2018-11-03T01:41:06.842Z,8.00
2018-11-03T01:43:35.302Z,8.00
2018-11-03T01:46:03.726Z,8.00
2018-11-03T01:48:32.177Z,8.00
2018-11-03T01:51:00.546Z,8.00
2018-11-03T01:53:28.880Z,8.00
2018-11-03T01:55:57.249Z,8.00
2018-11-03T01:58:25.628Z,8.00
2018-11-03T02:00:53.993Z,8.00
2018-11-03T02:03:22.452Z,7.90
2018-11-03T02:05:50.829Z,7.90
2018-11-03T02:08:19.216Z,7.90
2018-11-03T02:10:47.572Z,7.90
2018-11-03T02:13:26.006Z,7.90
2018-11-03T02:15:54.336Z,7.80
2018-11-03T02:18:22.737Z,7.80
2018-11-03T02:20:51.084Z,7.70
2018-11-03T02:23:19.527Z,7.70
2018-11-03T02:25:47.895Z,7.70
2018-11-03T02:28:16.282Z,7.70
2018-11-03T02:30:44.688Z,7.70
2018-11-03T02:33:13.078Z,7.70
2018-11-03T02:35:41.520Z,7.70
2018-11-03T02:38:09.957Z,7.70
2018-11-03T02:40:38.358Z,7.70
2018-11-03T02:43:06.889Z,7.70
2018-11-03T02:45:35.480Z,7.60
2018-11-03T02:48:03.963Z,7.60
2018-11-03T02:50:32.315Z,7.60
2018-11-03T02:53:00.721Z,7.70
2018-11-03T02:55:29.176Z,7.60
2018-11-03T02:57:57.925Z,7.60
2018-11-03T03:00:26.313Z,7.60
2018-11-03T03:02:54.789Z,7.50
2018-11-03T03:05:23.251Z,7.50
2018-11-03T03:07:51.667Z,7.50
2018-11-03T03:10:20.096Z,7.50
2018-11-03T03:12:48.485Z,7.50
2018-11-03T03:15:16.884Z,7.50
2018-11-03T03:17:45.265Z,7.60
2018-11-03T03:20:13.728Z,7.50
2018-11-03T03:22:42.631Z,7.60
2018-11-03T03:25:11.680Z,7.50
2018-11-03T03:27:40.236Z,7.60
2018-11-03T03:30:09.220Z,7.50
2018-11-03T03:32:37.709Z,7.50
2018-11-03T03:35:06.641Z,7.50
2018-11-03T03:37:35.116Z,7.40
2018-11-03T03:40:03.554Z,7.40
2018-11-03T03:42:32.068Z,7.40
2018-11-03T03:45:00.525Z,7.40
2018-11-03T03:47:29.371Z,7.40
2018-11-03T03:49:57.808Z,7.40
2018-11-03T03:52:26.300Z,7.40
2018-11-03T03:54:54.760Z,7.40
2018-11-03T03:57:23.267Z,7.40
2018-11-03T03:59:51.685Z,7.40
2018-11-03T04:02:20.168Z,7.40
2018-11-03T04:04:48.835Z,7.30
2018-11-03T04:07:17.217Z,7.30
2018-11-03T04:09:45.620Z,7.30
2018-11-03T04:12:14.005Z,7.30
2018-11-03T04:14:42.481Z,7.30
2018-11-03T04:17:10.991Z,7.20
2018-11-03T04:19:39.350Z,7.20
2018-11-03T04:22:07.777Z,7.10
2018-11-03T04:24:36.228Z,7.10
2018-11-03T04:27:04.709Z,7.00
2018-11-03T04:29:33.117Z,6.90
2018-11-03T04:32:01.500Z,6.90
2018-11-03T04:34:30.028Z,6.90
2018-11-03T04:36:58.446Z,6.90
2018-11-03T04:39:26.879Z,6.90
2018-11-03T04:41:55.341Z,6.90
2018-11-03T04:44:23.773Z,6.90
2018-11-03T04:46:52.217Z,6.90
2018-11-03T04:49:20.697Z,7.00
2018-11-03T04:51:49.223Z,6.90
2018-11-03T04:54:17.901Z,7.00
2018-11-03T04:56:46.385Z,7.00
2018-11-03T04:59:14.792Z,6.90
2018-11-03T05:01:43.236Z,6.90
2018-11-03T05:04:12.385Z,6.90
2018-11-03T05:06:40.782Z,6.90
2018-11-03T05:09:10.133Z,6.90
2018-11-03T05:11:38.652Z,6.80
2018-11-03T05:14:08.033Z,6.80
2018-11-03T05:16:36.563Z,6.90
2018-11-03T05:19:05.009Z,6.90
2018-11-03T05:21:33.361Z,6.90
2018-11-03T05:24:01.751Z,6.90
2018-11-03T05:26:30.196Z,6.90
2018-11-03T05:28:58.552Z,6.90
2018-11-03T05:31:26.969Z,6.90
2018-11-03T05:33:55.373Z,6.90
2018-11-03T05:36:23.821Z,6.90
2018-11-03T05:38:52.268Z,6.90
2018-11-03T05:41:20.640Z,6.80
2018-11-03T05:43:49.237Z,6.80
2018-11-03T05:46:17.731Z,6.80
2018-11-03T05:48:46.080Z,6.80
2018-11-03T05:51:14.603Z,6.80
2018-11-03T05:53:43.091Z,6.70
2018-11-03T05:56:11.581Z,6.70
2018-11-03T05:58:40.111Z,6.70
2018-11-03T06:01:08.574Z,6.70
2018-11-03T06:03:36.973Z,6.70
2018-11-03T06:06:05.432Z,6.70
2018-11-03T06:08:33.863Z,6.70
2018-11-03T06:11:02.265Z,6.70
2018-11-03T06:13:30.660Z,6.70
2018-11-03T06:15:59.313Z,6.70
2018-11-03T06:18:28.005Z,6.70
2018-11-03T06:20:56.541Z,6.80
2018-11-03T06:23:25.035Z,6.70
2018-11-03T06:25:53.392Z,6.70
2018-11-03T06:28:21.916Z,6.70
2018-11-03T06:30:50.288Z,6.70
2018-11-03T06:33:18.749Z,6.70
2018-11-03T06:35:47.270Z,6.70
2018-11-03T06:38:15.789Z,6.70
2018-11-03T06:40:44.200Z,6.70
2018-11-03T06:43:12.717Z,6.80
2018-11-03T06:45:41.099Z,6.80
2018-11-03T06:48:09.561Z,6.80
2018-11-03T06:50:38.037Z,6.80
2018-11-03T06:53:06.441Z,6.80
2018-11-03T06:55:34.800Z,6.70
2018-11-03T06:58:03.407Z,6.70
2018-11-03T07:00:31.809Z,6.70
2018-11-03T07:03:00.156Z,6.60
2018-11-03T07:05:28.552Z,6.70
2018-11-03T07:07:57.136Z,6.70
2018-11-03T07:10:25.919Z,6.70
2018-11-03T07:12:55.439Z,6.70
2018-11-03T07:15:23.842Z,6.80
2018-11-03T07:17:52.349Z,6.80
2018-11-03T07:20:20.694Z,6.80
2018-11-03T07:22:49.059Z,6.80
2018-11-03T07:25:17.464Z,6.80
2018-11-03T07:27:45.930Z,6.80
2018-11-03T07:30:14.461Z,6.90
2018-11-03T07:32:42.976Z,6.90
2018-11-03T07:35:11.353Z,6.90
2018-11-03T07:37:39.772Z,7.00
2018-11-03T07:40:08.840Z,7.00
2018-11-03T07:42:37.618Z,6.90
2018-11-03T07:45:06.241Z,7.00
2018-11-03T07:47:34.796Z,7.00
2018-11-03T07:50:03.458Z,7.00
2018-11-03T07:52:31.849Z,7.00
2018-11-03T07:55:00.328Z,7.00
2018-11-03T07:57:28.825Z,7.00
2018-11-03T07:59:57.372Z,7.00
2018-11-03T08:02:25.772Z,7.10
2018-11-03T08:04:54.217Z,7.10
2018-11-03T08:07:22.617Z,7.10
2018-11-03T08:09:51.128Z,7.10
2018-11-03T08:12:19.521Z,7.10
2018-11-03T08:14:48.004Z,7.10
2018-11-03T08:17:16.381Z,7.10
2018-11-03T08:19:48.344Z,7.10
2018-11-03T08:22:16.785Z,7.10
2018-11-03T08:24:45.305Z,7.20
2018-11-03T08:27:13.812Z,7.20
2018-11-03T08:29:42.209Z,7.20
2018-11-03T08:32:10.721Z,7.30
2018-11-03T08:34:39.247Z,7.30
2018-11-03T08:37:07.672Z,7.30
2018-11-03T08:39:36.285Z,7.40
2018-11-03T08:42:05.041Z,8.00
2018-11-03T08:44:33.460Z,8.60
2018-11-03T08:47:01.849Z,9.10
2018-11-03T08:49:30.337Z,9.50
2018-11-03T08:51:58.908Z,9.80
2018-11-03T08:54:27.359Z,10.10
2018-11-03T08:56:56.722Z,10.20
2018-11-03T08:59:25.251Z,10.10
2018-11-03T09:01:53.813Z,10.10
2018-11-03T09:04:22.282Z,10.10
2018-11-03T09:06:50.814Z,10.10
2018-11-03T09:09:19.216Z,10.10
2018-11-03T09:11:47.672Z,10.00
2018-11-03T09:14:16.119Z,10.00
2018-11-03T09:16:44.517Z,9.90
2018-11-03T09:19:13.067Z,9.90
2018-11-03T09:21:41.941Z,9.80
2018-11-03T09:24:10.464Z,9.70
2018-11-03T09:26:38.913Z,9.80
2018-11-03T09:29:07.508Z,9.80
2018-11-03T09:31:35.885Z,9.90
2018-11-03T09:34:04.470Z,9.90
2018-11-03T09:36:32.865Z,10.00
2018-11-03T09:39:01.373Z,10.00
2018-11-03T09:41:29.721Z,10.10
2018-11-03T09:43:58.120Z,10.20
2018-11-03T09:46:26.466Z,10.30
2018-11-03T09:48:54.827Z,10.40
2018-11-03T09:51:23.245Z,10.40
2018-11-03T09:53:51.688Z,10.50
2018-11-03T09:56:20.162Z,10.60
2018-11-03T09:58:48.611Z,10.70
2018-11-03T10:01:16.994Z,10.70
2018-11-03T10:03:45.459Z,10.70
2018-11-03T10:06:13.957Z,10.80
2018-11-03T10:08:42.349Z,10.90
2018-11-03T10:11:10.809Z,10.90
2018-11-03T10:13:39.186Z,11.10
2018-11-03T10:16:07.781Z,11.20
2018-11-03T10:18:36.119Z,11.20
2018-11-03T10:21:04.648Z,11.40
2018-11-03T10:23:33.098Z,11.50
2018-11-03T10:26:01.635Z,11.50
2018-11-03T10:28:30.133Z,11.60
2018-11-03T10:30:58.617Z,11.60
2018-11-03T10:33:27.114Z,11.70
2018-11-03T10:35:55.480Z,11.70
2018-11-03T10:38:24.053Z,11.80
2018-11-03T10:40:52.457Z,11.80
2018-11-03T10:43:22.019Z,11.70
2018-11-03T10:45:50.510Z,11.70
2018-11-03T10:48:18.960Z,11.60
2018-11-03T10:50:47.386Z,11.60
2018-11-03T10:53:15.784Z,11.60
2018-11-03T10:55:44.176Z,11.60
2018-11-03T10:58:12.695Z,11.60
2018-11-03T11:00:46.450Z,11.60
2018-11-03T11:03:20.099Z,11.70
2018-11-03T11:06:55.264Z,11.70
2018-11-03T11:09:29.203Z,11.80
2018-11-03T11:12:02.976Z,11.90
2018-11-03T11:14:31.476Z,12.00
2018-11-03T11:17:00.022Z,12.20
2018-11-03T11:19:28.344Z,12.40
2018-11-03T11:21:56.728Z,12.60
2018-11-03T11:24:25.325Z,12.80
2018-11-03T11:26:53.517Z,12.90
2018-11-03T11:29:21.953Z,13.00
2018-11-03T11:31:50.390Z,13.10
2018-11-03T11:34:18.828Z,13.30
2018-11-03T11:36:47.216Z,13.50
2018-11-03T11:39:15.601Z,13.50
2018-11-03T11:41:44.057Z,13.60
2018-11-03T11:44:12.509Z,13.70
2018-11-03T11:46:40.941Z,13.80
2018-11-03T11:49:09.324Z,13.80
2018-11-03T11:51:37.689Z,13.90
2018-11-03T11:54:06.272Z,14.00
2018-11-03T11:56:34.688Z,14.10
2018-11-03T11:59:03.089Z,14.20
2018-11-03T12:01:31.520Z,14.20
2018-11-03T12:03:59.884Z,14.30
2018-11-03T12:06:28.376Z,14.40
2018-11-03T12:08:56.741Z,14.60
2018-11-03T12:11:25.144Z,14.70
2018-11-03T12:13:53.525Z,14.80
2018-11-03T12:16:22.121Z,14.90
2018-11-03T12:18:50.405Z,15.00
2018-11-03T12:21:18.846Z,15.00
2018-11-03T12:23:47.270Z,15.20
2018-11-03T12:26:15.657Z,15.20
2018-11-03T12:28:44.141Z,15.30
2018-11-03T12:31:12.528Z,15.40
2018-11-03T12:33:41.084Z,15.40
2018-11-03T12:36:09.444Z,15.40
2018-11-03T12:38:37.967Z,15.40
2018-11-03T12:41:06.460Z,15.50
2018-11-03T12:43:34.906Z,15.30
2018-11-03T12:46:03.414Z,15.30
2018-11-03T12:48:32.001Z,15.40
2018-11-03T12:51:00.363Z,15.40
2018-11-03T12:53:28.813Z,15.40
2018-11-03T12:55:57.320Z,15.50
2018-11-03T12:58:25.814Z,15.40
2018-11-03T13:00:54.279Z,15.40
2018-11-03T13:03:22.700Z,15.40
2018-11-03T13:05:51.177Z,15.30
2018-11-03T13:08:19.597Z,15.20
2018-11-03T13:10:48.080Z,15.10
2018-11-03T13:13:16.480Z,15.10
2018-11-03T13:15:45.097Z,15.00
2018-11-03T13:18:13.580Z,15.00
2018-11-03T13:20:42.027Z,15.00
2018-11-03T13:23:10.420Z,15.00
2018-11-03T13:25:38.844Z,14.80
2018-11-03T13:28:07.463Z,14.80
2018-11-03T13:30:35.820Z,14.70
2018-11-03T13:33:04.353Z,14.50
2018-11-03T13:35:32.746Z,14.40
2018-11-03T13:38:01.205Z,14.20
2018-11-03T13:40:29.621Z,14.10
2018-11-03T13:42:58.094Z,14.00
2018-11-03T13:45:26.581Z,13.90
2018-11-03T13:47:55.155Z,13.90
2018-11-03T13:50:23.506Z,13.80
2018-11-03T13:52:51.900Z,13.80
2018-11-03T13:55:20.345Z,13.70
2018-11-03T13:57:48.755Z,13.70
2018-11-03T14:00:18.345Z,13.60
2018-11-03T14:02:47.658Z,13.50
2018-11-03T14:05:16.125Z,13.40
2018-11-03T14:07:44.656Z,13.30
2018-11-03T14:10:15.218Z,13.30
2018-11-03T14:12:44.421Z,13.30
2018-11-03T14:15:13.952Z,13.20
2018-11-03T14:17:42.312Z,13.10
2018-11-03T14:20:12.901Z,13.00
2018-11-03T14:22:41.944Z,12.90
2018-11-03T14:25:12.199Z,12.90
2018-11-03T14:27:41.278Z,12.90
2018-11-03T14:30:10.684Z,12.90
2018-11-03T14:32:39.134Z,12.90
2018-11-03T14:35:08.221Z,13.00
2018-11-03T14:37:36.668Z,13.00
2018-11-03T14:40:06.408Z,13.00
2018-11-03T14:42:34.871Z,13.00
2018-11-03T14:45:03.398Z,13.00
2018-11-03T14:47:31.820Z,13.00
2018-11-03T14:50:03.033Z,13.00
2018-11-03T14:52:32.869Z,13.00
2018-11-03T14:55:01.301Z,13.00
2018-11-03T14:57:29.683Z,13.00
2018-11-03T14:59:58.068Z,13.00
2018-11-03T15:02:26.432Z,12.90
2018-11-03T15:04:54.936Z,12.90
2018-11-03T15:07:27.200Z,12.90
2018-11-03T15:09:55.603Z,12.80
2018-11-03T15:12:24.049Z,12.70
2018-11-03T15:14:52.516Z,12.70
2018-11-03T15:17:21.005Z,12.60
2018-11-03T15:19:49.414Z,12.60
2018-11-03T15:22:17.828Z,12.60
2018-11-03T15:24:46.238Z,12.60
2018-11-03T15:27:14.720Z,12.60
2018-11-03T15:29:43.590Z,12.60
2018-11-03T15:32:11.996Z,12.50
2018-11-03T15:34:40.369Z,12.50
2018-11-03T15:37:08.780Z,12.40
2018-11-03T15:39:37.320Z,12.40
2018-11-03T15:42:05.808Z,12.40
2018-11-03T15:44:34.213Z,12.40
2018-11-03T15:47:02.552Z,12.40
2018-11-03T15:49:30.980Z,12.40
2018-11-03T15:51:59.409Z,12.40
2018-11-03T15:54:27.905Z,12.30
2018-11-03T15:56:56.273Z,12.20
2018-11-03T15:59:24.696Z,12.20
2018-11-03T16:01:53.164Z,12.10
2018-11-03T16:04:21.553Z,12.00
2018-11-03T16:06:49.972Z,11.90
2018-11-03T16:09:18.364Z,11.90
2018-11-03T16:11:46.820Z,11.80
2018-11-03T16:14:15.296Z,11.80
2018-11-03T16:16:43.760Z,11.80
2018-11-03T16:19:12.168Z,11.80
2018-11-03T16:21:40.603Z,11.80
2018-11-03T16:24:09.072Z,11.80
2018-11-03T16:26:37.512Z,11.80
2018-11-03T16:29:05.948Z,11.80
2018-11-03T16:31:34.351Z,11.70
2018-11-03T16:34:02.783Z,11.70
2018-11-03T16:36:31.234Z,11.70
2018-11-03T16:38:59.580Z,11.60
2018-11-03T16:41:28.048Z,11.60
2018-11-03T16:43:56.371Z,11.50
2018-11-03T16:46:24.819Z,11.50
2018-11-03T16:48:53.228Z,11.50
2018-11-03T16:51:21.645Z,11.50
2018-11-03T16:53:50.020Z,11.50
2018-11-03T16:56:18.489Z,11.50
2018-11-03T16:58:47.010Z,11.40
2018-11-03T17:01:15.257Z,11.40
2018-11-03T17:03:43.664Z,11.40
2018-11-03T17:06:12.106Z,11.30
2018-11-03T17:08:40.528Z,11.30
2018-11-03T17:11:08.985Z,11.30
2018-11-03T17:13:37.309Z,11.30
2018-11-03T17:16:05.791Z,11.20
2018-11-03T17:18:34.181Z,11.20
2018-11-03T17:21:02.484Z,11.20
2018-11-03T17:23:30.998Z,11.20
2018-11-03T17:25:59.382Z,11.20
2018-11-03T17:28:27.780Z,11.10
2018-11-03T17:30:56.181Z,11.10
2018-11-03T17:33:24.564Z,11.20
2018-11-03T17:35:53.025Z,11.10
2018-11-03T17:38:21.461Z,11.10
2018-11-03T17:40:49.818Z,11.10
2018-11-03T17:43:18.217Z,11.10
2018-11-03T17:45:46.682Z,11.10
2018-11-03T17:48:15.066Z,11.10
2018-11-03T17:50:43.425Z,11.10
2018-11-03T17:53:11.905Z,11.00
2018-11-03T17:55:40.318Z,11.00
2018-11-03T17:58:08.744Z,11.00
2018-11-03T18:00:40.479Z,10.90
2018-11-03T18:03:08.852Z,10.90
2018-11-03T18:05:37.401Z,10.90
2018-11-03T18:08:05.822Z,10.90
2018-11-03T18:10:34.209Z,10.90
2018-11-03T18:13:02.667Z,10.90
2018-11-03T18:15:31.322Z,10.80
2018-11-03T18:17:59.758Z,10.80
2018-11-03T18:20:28.108Z,10.70
2018-11-03T18:22:56.597Z,10.80
2018-11-03T18:25:24.931Z,10.80
2018-11-03T18:27:53.266Z,10.70
2018-11-03T18:30:21.651Z,10.70
2018-11-03T18:32:50.075Z,10.70
2018-11-03T18:35:18.481Z,10.70
2018-11-03T18:37:46.907Z,10.70
2018-11-03T18:40:15.326Z,10.70
2018-11-03T18:42:43.744Z,10.70
2018-11-03T18:45:12.235Z,10.70
2018-11-03T18:47:40.561Z,10.60
2018-11-03T18:50:12.169Z,10.60
2018-11-03T18:52:40.778Z,10.60
2018-11-03T18:55:10.215Z,10.50
2018-11-03T18:57:39.032Z,10.50
2018-11-03T19:00:08.470Z,10.50
2018-11-03T19:02:37.253Z,10.50
2018-11-03T19:05:05.940Z,10.40
2018-11-03T19:07:34.396Z,10.40
2018-11-03T19:10:02.805Z,10.40
2018-11-03T19:12:31.261Z,10.30
2018-11-03T19:14:59.708Z,10.30
2018-11-03T19:17:28.145Z,10.30
2018-11-03T19:19:56.520Z,10.20
2018-11-03T19:22:24.988Z,10.20
2018-11-03T19:24:54.377Z,10.20
2018-11-03T19:27:22.788Z,10.20
2018-11-03T19:29:51.233Z,10.20
2018-11-03T19:32:19.687Z,10.20
2018-11-03T19:34:48.035Z,10.20
2018-11-03T19:37:16.456Z,10.20
2018-11-03T19:39:44.966Z,10.20
2018-11-03T19:42:13.749Z,10.20
2018-11-03T19:44:42.149Z,10.20
2018-11-03T19:47:10.520Z,10.00
2018-11-03T19:49:38.876Z,10.00
2018-11-03T19:52:07.312Z,9.90
2018-11-03T19:54:35.640Z,10.00
2018-11-03T19:57:04.035Z,10.00
2018-11-03T19:59:32.420Z,9.90
2018-11-03T20:02:00.837Z,9.90
2018-11-03T20:04:29.318Z,9.90
2018-11-03T20:06:57.714Z,9.90
2018-11-03T20:09:26.204Z,10.00
2018-11-03T20:11:54.699Z,9.90
2018-11-03T20:14:23.134Z,9.90
2018-11-03T20:16:52.320Z,9.90
2018-11-03T20:19:20.995Z,9.90
2018-11-03T20:21:49.404Z,9.90
2018-11-03T20:24:17.985Z,10.10
2018-11-03T20:26:46.506Z,10.40
2018-11-03T20:29:15.790Z,10.60
2018-11-03T20:31:44.250Z,10.80
2018-11-03T20:34:12.689Z,11.10
2018-11-03T20:36:41.494Z,11.50
2018-11-03T20:39:11.028Z,11.50
2018-11-03T20:41:39.448Z,11.40
2018-11-03T20:44:07.933Z,11.30
2018-11-03T20:46:36.322Z,11.20
2018-11-03T20:49:05.082Z,11.10
2018-11-03T20:51:35.400Z,11.00
2018-11-03T20:54:03.865Z,10.80
2018-11-03T20:56:32.242Z,10.80
2018-11-03T20:59:00.633Z,10.70
2018-11-03T21:01:29.087Z,10.70
2018-11-03T21:04:02.564Z,10.60
2018-11-03T21:06:30.980Z,10.50
2018-11-03T21:08:59.373Z,10.40
2018-11-03T21:11:27.676Z,10.40
2018-11-03T21:13:56.117Z,10.40
2018-11-03T21:16:24.572Z,10.40
2018-11-03T21:18:52.956Z,10.50
2018-11-03T21:21:21.379Z,10.50
2018-11-03T21:23:51.020Z,10.50
2018-11-03T21:26:19.446Z,10.40
2018-11-03T21:28:47.833Z,10.40
2018-11-03T21:31:16.300Z,10.40
2018-11-03T21:33:44.784Z,10.40
2018-11-03T21:36:13.208Z,10.30
2018-11-03T21:38:41.576Z,10.30
2018-11-03T21:41:09.941Z,10.20
2018-11-03T21:43:38.418Z,10.20
2018-11-03T21:46:07.156Z,10.10
2018-11-03T21:48:35.596Z,10.00
2018-11-03T21:51:03.993Z,10.00
2018-11-03T21:53:32.396Z,10.00
2018-11-03T21:56:00.913Z,9.90
2018-11-03T21:58:29.249Z,9.80
2018-11-03T22:00:57.628Z,9.70
2018-11-03T22:03:26.025Z,9.60
2018-11-03T22:05:54.496Z,9.60
2018-11-03T22:08:22.898Z,9.50
2018-11-03T22:10:51.340Z,9.50
2018-11-03T22:13:19.688Z,9.50
2018-11-03T22:15:48.242Z,9.50
2018-11-03T22:18:16.649Z,9.40
2018-11-03T22:20:45.048Z,9.30
2018-11-03T22:23:14.400Z,9.30
2018-11-03T22:25:43.134Z,9.30
2018-11-03T22:28:11.460Z,9.20
2018-11-03T22:30:39.928Z,9.20
2018-11-03T22:33:12.419Z,9.10
2018-11-03T22:35:40.833Z,9.10
2018-11-03T22:38:09.266Z,9.10
2018-11-03T22:40:37.622Z,9.20
2018-11-03T22:43:06.016Z,9.20
2018-11-03T22:45:34.435Z,9.20
2018-11-03T22:48:02.820Z,9.20
2018-11-03T22:50:31.228Z,9.20
2018-11-03T22:52:59.583Z,9.20
2018-11-03T22:55:28.010Z,9.30
2018-11-03T22:57:56.396Z,9.30
2018-11-03T23:00:24.865Z,9.30
2018-11-03T23:02:53.224Z,9.20
2018-11-03T23:05:21.684Z,9.20
2018-11-03T23:07:50.125Z,9.20
2018-11-03T23:10:18.503Z,9.20
2018-11-03T23:12:46.936Z,9.10
2018-11-03T23:15:15.568Z,9.10
2018-11-03T23:17:43.957Z,9.20
2018-11-03T23:20:13.717Z,9.20
2018-11-03T23:22:42.106Z,9.10
2018-11-03T23:25:10.868Z,9.10
2018-11-03T23:27:40.073Z,9.20
2018-11-03T23:30:10.112Z,9.10
2018-11-03T23:32:38.601Z,9.20
2018-11-03T23:35:08.384Z,9.20
2018-11-03T23:37:36.749Z,9.20
2018-11-03T23:40:05.894Z,9.20
2018-11-03T23:42:34.360Z,9.20
2018-11-03T23:45:02.738Z,9.30
2018-11-03T23:47:31.241Z,9.30
2018-11-03T23:49:59.701Z,9.20
2018-11-03T23:52:32.906Z,9.30
2018-11-03T23:55:02.076Z,9.20
2018-11-03T23:57:30.718Z,9.20
2018-11-03T23:59:59.486Z,9.20
